Time;durP1;ratioP1;P1;durP2;ratioP2;P2;SDS_P1;SDS_P2;PMS_P1;PMS_P2;Temp;Humidity;BMP_temperature;BMP_pressure;BME280_temperature;BME280_humidity;BME280_pressure;Samples;Min_cycle;Max_cycle;Signal;HPM_P1;HPM_P2
2022/06/07 00:07:16;;;;;;;2.50;1.00;;;16.30;99.90;;;;;;6709759;88;20199;-81
2022/06/07 00:17:17;;;;;;;1.50;0.95;;;16.10;99.90;;;;;;6709852;88;20185;-82
2022/06/07 00:27:18;;;;;;;2.58;1.00;;;15.90;99.90;;;;;;6705490;88;20578;-80
2022/06/07 00:37:18;;;;;;;2.05;0.80;;;15.90;99.90;;;;;;6709457;88;20198;-79
2022/06/07 00:47:23;;;;;;;2.20;0.90;;;16.00;99.90;;;;;;6692611;89;20271;-81
2022/06/07 00:57:24;;;;;;;2.92;1.10;;;15.90;99.90;;;;;;6693562;89;20228;-82
2022/06/07 01:17:44;;;;;;;2.60;0.90;;;16.00;99.90;;;;;;6696264;88;20198;-81
2022/06/07 01:27:45;;;;;;;2.42;1.10;;;16.20;99.90;;;;;;6695897;88;20276;-81
2022/06/07 01:37:45;;;;;;;1.80;0.95;;;16.10;99.90;;;;;;6695146;88;20202;-81
2022/06/07 01:47:46;;;;;;;2.87;1.10;;;16.10;99.90;;;;;;6694836;88;20712;-81
2022/06/07 01:57:46;;;;;;;2.43;1.00;;;16.00;99.90;;;;;;6695450;88;20192;-80
2022/06/07 02:07:47;;;;;;;2.22;0.90;;;16.10;99.90;;;;;;6694367;88;20527;-81
2022/06/07 02:17:47;;;;;;;2.35;1.17;;;15.90;99.90;;;;;;6695900;88;20215;-81
2022/06/07 02:27:48;;;;;;;3.90;1.10;;;15.70;99.90;;;;;;6695545;88;20214;-81
2022/06/07 02:37:49;;;;;;;1.73;1.10;;;15.40;99.90;;;;;;6690822;88;20197;-80
2022/06/07 02:47:49;;;;;;;2.17;1.00;;;15.10;99.90;;;;;;6695124;88;20226;-80
2022/06/07 02:57:50;;;;;;;2.58;1.08;;;15.00;99.90;;;;;;6699919;88;20501;-79
2022/06/07 03:07:51;;;;;;;4.43;1.15;;;14.80;99.90;;;;;;6691996;88;20207;-80
2022/06/07 03:17:51;;;;;;;2.10;1.12;;;14.60;99.90;;;;;;6690096;88;20226;-81
2022/06/07 03:27:52;;;;;;;4.12;1.40;;;14.60;99.90;;;;;;6695280;88;20819;-80
2022/06/07 03:37:52;;;;;;;2.30;1.10;;;14.60;99.90;;;;;;6691186;88;20285;-79
2022/06/07 03:47:53;;;;;;;3.42;1.20;;;14.70;99.90;;;;;;6693319;88;20677;-80
2022/06/07 03:57:54;;;;;;;3.62;1.20;;;14.70;99.90;;;;;;6690409;88;20190;-79
2022/06/07 04:08:13;;;;;;;4.07;1.30;;;14.90;99.90;;;;;;6693779;88;20239;-80
2022/06/07 04:18:13;;;;;;;2.25;1.08;;;15.00;99.90;;;;;;6693008;88;20713;-80
2022/06/07 04:28:14;;;;;;;2.17;1.25;;;14.90;99.90;;;;;;6694581;89;20183;-80
2022/06/07 04:38:15;;;;;;;3.73;1.17;;;14.90;99.90;;;;;;6694615;89;20212;-81
2022/06/07 04:48:16;;;;;;;3.50;1.10;;;14.80;99.90;;;;;;6693424;89;20634;-81
2022/06/07 04:58:16;;;;;;;1.60;1.05;;;15.00;99.90;;;;;;6691649;89;20219;-80
2022/06/07 05:08:17;;;;;;;3.20;1.10;;;15.10;99.90;;;;;;6693347;89;20203;-80
2022/06/07 05:18:18;;;;;;;2.35;1.30;;;15.20;99.90;;;;;;6693223;88;20270;-80
2022/06/07 05:28:19;;;;;;;2.28;1.02;;;15.40;99.90;;;;;;6708964;88;20703;-79
2022/06/07 05:38:21;;;;;;;2.83;1.08;;;15.70;99.90;;;;;;6708627;88;20191;-79
2022/06/07 05:48:22;;;;;;;2.58;1.40;;;15.80;99.90;;;;;;6703210;88;20644;-80
2022/06/07 05:58:25;;;;;;;3.75;1.12;;;16.10;99.90;;;;;;6700727;88;20194;-79
2022/06/07 06:18:55;;;;;;;3.58;1.05;;;16.90;99.90;;;;;;6695609;88;20171;-79
2022/06/07 06:28:56;;;;;;;2.67;1.08;;;17.80;99.90;;;;;;6706388;88;20327;-80
2022/06/07 06:38:58;;;;;;;2.60;1.10;;;18.10;99.90;;;;;;6691396;88;20202;-80
2022/06/07 06:48:58;;;;;;;3.20;1.10;;;18.70;99.90;;;;;;6701613;88;20281;-80
2022/06/07 06:58:59;;;;;;;2.03;1.00;;;19.00;99.90;;;;;;6709516;88;20211;-81
2022/06/07 07:09:00;;;;;;;2.65;1.10;;;19.60;99.90;;;;;;6706065;88;20350;-80
2022/06/07 07:19:03;;;;;;;3.37;0.88;;;20.20;99.90;;;;;;6706488;88;20222;-81
2022/06/07 07:29:05;;;;;;;1.87;0.98;;;21.10;99.90;;;;;;6717568;88;20181;-82
2022/06/07 07:39:06;;;;;;;2.72;0.82;;;20.50;99.90;;;;;;6714524;88;20741;-80
2022/06/07 07:49:07;;;;;;;4.10;0.80;;;20.80;99.90;;;;;;6707814;88;20214;-81
2022/06/07 07:59:10;;;;;;;2.45;0.90;;;21.30;99.90;;;;;;6705432;88;20247;-81
2022/06/07 08:09:11;;;;;;;2.80;0.80;;;21.60;99.90;;;;;;6709252;88;20201;-82
2022/06/07 08:19:11;;;;;;;3.43;0.97;;;22.70;99.90;;;;;;6693369;88;20758;-82
2022/06/07 08:29:12;;;;;;;2.17;0.80;;;23.20;99.20;;;;;;6696218;88;21020;-82
2022/06/07 08:39:14;;;;;;;2.95;0.70;;;22.50;99.90;;;;;;6691881;89;20214;-81
2022/06/07 08:49:14;;;;;;;1.92;0.90;;;21.90;99.90;;;;;;6691238;89;20201;-81
2022/06/07 08:59:19;;;;;;;1.92;0.80;;;22.50;99.90;;;;;;6695312;89;20187;-81
2022/06/07 09:09:22;;;;;;;1.90;0.93;;;22.80;99.90;;;;;;6694385;88;20190;-81
2022/06/07 09:19:26;;;;;;;2.80;0.90;;;21.40;99.90;;;;;;6698405;88;20200;-81
2022/06/07 09:29:27;;;;;;;4.78;1.20;;;20.20;99.90;;;;;;6694826;88;20269;-81
2022/06/07 09:39:36;;;;;;;3.22;0.98;;;20.70;99.90;;;;;;6696450;88;20233;-81
2022/06/07 09:49:40;;;;;;;1.87;1.00;;;21.10;99.90;;;;;;6700217;88;20194;-81
2022/06/07 09:59:54;;;;;;;1.60;0.85;;;21.60;99.90;;;;;;6713617;88;20212;-81
2022/06/07 10:10:06;;;;;;;4.53;0.90;;;22.10;99.90;;;;;;6699061;88;20284;-81
2022/06/07 10:20:22;;;;;;;5.20;0.80;;;22.60;99.90;;;;;;6684732;88;20226;-82
2022/06/07 10:30:40;;;;;;;4.40;0.80;;;23.60;99.90;;;;;;6695183;88;20287;-80
2022/06/07 10:40:44;;;;;;;2.08;0.77;;;24.50;97.20;;;;;;6708189;88;20191;-80
2022/06/07 10:51:06;;;;;;;2.10;0.80;;;24.30;98.70;;;;;;6696258;88;20231;-79
2022/06/07 11:01:14;;;;;;;3.30;0.90;;;24.70;95.70;;;;;;6695766;88;20348;-79
2022/06/07 11:11:16;;;;;;;2.70;0.90;;;24.50;96.10;;;;;;6711565;88;20198;-80
2022/06/07 11:21:31;;;;;;;2.67;0.80;;;23.20;97.10;;;;;;6697023;88;20376;-82
2022/06/07 11:31:41;;;;;;;1.42;0.73;;;22.30;98.50;;;;;;6694947;88;20179;-79
2022/06/07 11:41:46;;;;;;;2.33;0.80;;;22.30;99.00;;;;;;6698415;88;20194;-79
2022/06/07 11:52:03;;;;;;;2.85;0.77;;;22.10;99.70;;;;;;6696886;88;20193;-79
2022/06/07 12:02:04;;;;;;;2.45;0.77;;;22.00;99.90;;;;;;6704690;88;20346;-81
2022/06/07 12:12:37;;;;;;;3.08;0.88;;;22.10;99.90;;;;;;6659065;89;20366;-80
2022/06/07 12:22:42;;;;;;;4.40;1.05;;;22.10;99.90;;;;;;6676941;88;20218;-80
2022/06/07 12:32:43;;;;;;;2.62;1.08;;;20.60;99.90;;;;;;6693923;89;20307;-79
2022/06/07 12:42:47;;;;;;;2.87;1.27;;;20.00;99.90;;;;;;6694733;89;20222;-80
2022/06/07 12:52:52;;;;;;;5.77;1.47;;;19.60;99.90;;;;;;6696347;88;20207;-80
2022/06/07 13:03:06;;;;;;;4.47;2.17;;;19.20;99.90;;;;;;6708072;88;20333;-82
2022/06/07 13:13:18;;;;;;;5.47;2.35;;;17.90;99.90;;;;;;6709840;88;20197;-82
2022/06/07 13:23:18;;;;;;;5.03;2.37;;;18.20;99.90;;;;;;6710881;88;20175;-82
2022/06/07 13:33:29;;;;;;;7.62;3.35;;;18.00;99.90;;;;;;6708755;88;20198;-81
2022/06/07 13:43:31;;;;;;;6.05;3.25;;;17.70;99.90;;;;;;6701671;88;20879;-80
2022/06/07 13:53:42;;;;;;;4.30;2.70;;;18.30;99.90;;;;;;6698058;88;20279;-80
2022/06/07 14:03:59;;;;;;;5.75;2.17;;;19.60;99.90;;;;;;6705375;88;20186;-81
2022/06/07 14:14:02;;;;;;;4.93;1.77;;;21.60;99.90;;;;;;6690544;88;20195;-79
2022/06/07 14:24:03;;;;;;;2.42;1.40;;;22.70;99.90;;;;;;6690784;88;20710;-81
2022/06/07 14:34:06;;;;;;;4.72;1.70;;;22.90;99.90;;;;;;6694553;88;20237;-81
2022/06/07 14:44:07;;;;;;;3.50;1.85;;;23.00;99.90;;;;;;6691610;88;20190;-81
2022/06/07 14:54:21;;;;;;;4.10;1.50;;;22.50;99.90;;;;;;6691669;88;20698;-80
2022/06/07 15:04:53;;;;;;;3.17;1.48;;;22.50;99.90;;;;;;6692466;88;20187;-80
2022/06/07 15:14:54;;;;;;;2.30;1.55;;;22.30;99.90;;;;;;6697285;88;20237;-80
2022/06/07 15:24:55;;;;;;;3.10;1.80;;;21.50;99.90;;;;;;6705206;88;20242;-81
2022/06/07 15:35:04;;;;;;;4.47;1.60;;;21.10;99.90;;;;;;6696514;88;20178;-81
2022/06/07 15:45:06;;;;;;;3.58;1.67;;;21.10;99.90;;;;;;6697120;88;20620;-80
2022/06/07 15:55:09;;;;;;;2.45;1.70;;;22.40;99.90;;;;;;6691029;88;20329;-81
2022/06/07 16:05:09;;;;;;;5.68;2.30;;;22.30;99.90;;;;;;6696478;88;20199;-80
2022/06/07 16:15:11;;;;;;;3.13;2.07;;;21.50;99.90;;;;;;6697310;88;20650;-80
2022/06/07 16:25:13;;;;;;;2.42;1.30;;;20.70;99.90;;;;;;6696894;88;20493;-80
2022/06/07 16:35:13;;;;;;;8.75;1.65;;;18.80;99.90;;;;;;6707431;88;20904;-84
2022/06/07 16:45:14;;;;;;;3.60;1.67;;;17.70;99.90;;;;;;6714251;88;20233;-83
2022/06/07 16:55:14;;;;;;;10.05;1.90;;;17.30;99.90;;;;;;6713211;88;20190;-82
2022/06/07 17:36:06;;;;;;;2.35;1.60;;;17.00;99.90;;;;;;6727458;77;20198;-78
2022/06/07 17:46:06;;;;;;;4.25;1.67;;;17.10;99.90;;;;;;6707948;88;20295;-80
2022/06/07 17:56:07;;;;;;;2.75;1.60;;;17.20;99.90;;;;;;6701309;88;20292;-79
2022/06/07 18:06:08;;;;;;;2.67;1.48;;;17.10;99.90;;;;;;6692786;88;20225;-79
2022/06/07 18:16:09;;;;;;;10.00;4.70;;;17.10;99.90;;;;;;6696550;88;20186;-79
2022/06/07 18:26:13;;;;;;;3.35;1.80;;;17.30;99.90;;;;;;6703295;88;20241;-80
2022/06/07 18:36:14;;;;;;;3.87;2.28;;;17.30;99.90;;;;;;6700410;88;20231;-81
2022/06/07 18:46:17;;;;;;;1.85;1.20;;;16.90;99.90;;;;;;6714726;88;20255;-81
2022/06/07 18:56:18;;;;;;;4.22;2.87;;;16.70;99.90;;;;;;6705807;88;20213;-82
2022/06/07 19:06:20;;;;;;;5.60;2.28;;;16.80;99.90;;;;;;6707315;88;20199;-80
2022/06/07 19:16:21;;;;;;;2.85;1.42;;;16.90;99.90;;;;;;6689997;88;20241;-80
2022/06/07 19:26:22;;;;;;;2.20;1.55;;;16.80;99.90;;;;;;6699460;88;20291;-81
2022/06/07 19:36:23;;;;;;;4.25;2.62;;;16.90;99.90;;;;;;6699676;88;20604;-82
2022/06/07 19:46:26;;;;;;;3.40;2.00;;;16.70;99.90;;;;;;6687703;88;20207;-80
2022/06/07 19:56:31;;;;;;;8.07;4.05;;;16.90;99.90;;;;;;6695911;88;20191;-82
2022/06/07 20:06:33;;;;;;;4.22;2.10;;;16.90;99.90;;;;;;6704090;88;20204;-81
2022/06/07 20:16:33;;;;;;;2.80;1.80;;;16.80;99.90;;;;;;6694346;88;20408;-81
2022/06/07 20:26:34;;;;;;;1.85;1.30;;;16.70;99.90;;;;;;6701193;88;20276;-81
2022/06/07 20:36:35;;;;;;;4.75;1.40;;;16.40;99.90;;;;;;6701475;88;20188;-81
2022/06/07 20:46:36;;;;;;;1.70;1.10;;;16.30;99.90;;;;;;6696054;88;20216;-80
2022/06/07 20:56:37;;;;;;;1.70;1.10;;;16.60;99.90;;;;;;6701302;89;20213;-81
2022/06/07 21:06:37;;;;;;;2.37;1.67;;;16.50;99.90;;;;;;6699668;89;20645;-81
2022/06/07 21:16:38;;;;;;;4.60;1.50;;;16.50;99.90;;;;;;6709300;88;20372;-80
2022/06/07 21:26:39;;;;;;;2.70;1.20;;;16.40;99.90;;;;;;6699221;88;20208;-81
2022/06/07 21:36:40;;;;;;;2.80;1.80;;;16.40;99.90;;;;;;6706702;88;20239;-81
2022/06/07 21:46:41;;;;;;;2.35;1.30;;;16.40;99.90;;;;;;6708298;88;20290;-80
2022/06/07 21:56:42;;;;;;;3.58;1.70;;;16.30;99.90;;;;;;6667408;89;20221;-80
2022/06/07 22:06:43;;;;;;;1.83;1.20;;;16.20;99.90;;;;;;6690620;88;20191;-80
2022/06/07 22:16:43;;;;;;;2.15;1.15;;;16.20;99.90;;;;;;6696483;88;20314;-81
2022/06/07 22:26:44;;;;;;;2.55;1.40;;;16.00;99.90;;;;;;6699482;88;20195;-80
2022/06/07 22:36:44;;;;;;;2.85;1.40;;;15.90;99.90;;;;;;6710478;88;20208;-80
2022/06/07 22:46:45;;;;;;;3.20;1.60;;;15.90;99.90;;;;;;6707800;88;20557;-82
2022/06/07 22:56:46;;;;;;;2.20;1.40;;;15.90;99.90;;;;;;6706526;88;20199;-82
2022/06/07 23:06:52;;;;;;;2.67;1.40;;;15.60;99.90;;;;;;6716203;88;20669;-81
2022/06/07 23:27:15;;;;;;;3.37;1.65;;;15.20;99.90;;;;;;6711583;88;20174;-81
2022/06/07 23:48:17;;;;;;;3.30;1.70;;;15.10;99.90;;;;;;6733999;88;20172;-79
2022/06/07 23:58:22;;;;;;;2.42;1.70;;;15.00;99.90;;;;;;6733763;88;20281;-80
